Time;durP1;ratioP1;P1;durP2;ratioP2;P2;SDS_P1;SDS_P2;PMS_P1;PMS_P2;Temp;Humidity;BMP_temperature;BMP_pressure;BME280_temperature;BME280_humidity;BME280_pressure;Samples;Min_cycle;Max_cycle;Signal;HPM_P1;HPM_P2
2021/01/10 00:05:50;;;;;;;1999.90;999.90;;;;;;;5.04;73.97;101893.72;15810265;28;20075;-57
2021/01/10 00:13:23;;;;;;;1999.90;999.90;;;;;;;5.19;73.59;101888.25;15833851;28;20046;-54
2021/01/10 00:20:56;;;;;;;1999.90;999.90;;;;;;;4.96;74.26;101896.97;15823982;28;20489;-55
2021/01/10 00:28:32;;;;;;;1999.90;999.90;;;;;;;5.33;73.27;101907.16;15853973;28;20084;-55
2021/01/10 00:36:05;;;;;;;1999.90;999.90;;;;;;;5.40;72.58;101904.97;15805135;28;20575;-54
2021/01/10 00:43:38;;;;;;;1999.90;999.90;;;;;;;5.12;72.63;101912.59;15817645;28;20562;-52
2021/01/10 00:51:14;;;;;;;1999.90;999.90;;;;;;;5.40;71.38;101919.63;15839653;28;20304;-57
2021/01/10 00:58:48;;;;;;;1999.90;999.90;;;;;;;5.47;70.77;101923.00;15808346;28;20116;-55
2021/01/10 01:06:22;;;;;;;1999.90;999.90;;;;;;;5.51;70.73;101926.06;15840613;28;20085;-56
2021/01/10 01:13:55;;;;;;;1999.90;999.90;;;;;;;5.61;70.29;101933.56;15798708;28;20075;-53
2021/01/10 01:21:26;;;;;;;1999.90;999.90;;;;;;;5.40;70.75;101939.00;15793389;28;20080;-53
2021/01/10 01:29:04;;;;;;;1999.90;999.90;;;;;;;5.66;70.18;101948.28;15809984;28;20043;-55
2021/01/10 01:36:39;;;;;;;1999.90;999.90;;;;;;;5.52;71.63;101947.09;15834132;28;20039;-59
2021/01/10 01:44:13;;;;;;;1999.90;999.90;;;;;;;5.32;72.24;101947.84;15824560;28;20085;-56
2021/01/10 01:51:45;;;;;;;1999.90;999.90;;;;;;;5.20;72.97;101961.03;15800399;28;20040;-58
2021/01/10 01:59:19;;;;;;;1999.90;999.90;;;;;;;5.39;72.74;101961.44;15823586;28;20389;-55
2021/01/10 02:06:58;;;;;;;1999.90;999.90;;;;;;;5.24;72.23;101955.81;15828520;28;20051;-58
2021/01/10 02:14:38;;;;;;;1999.90;999.90;;;;;;;5.13;73.01;101952.97;15820060;28;20457;-55
2021/01/10 02:22:12;;;;;;;1999.90;999.90;;;;;;;4.89;73.23;101958.03;15832170;28;20078;-56
2021/01/10 02:29:46;;;;;;;1999.90;999.90;;;;;;;4.91;73.03;101961.41;15807322;28;20048;-53
2021/01/10 02:37:33;;;;;;;1999.90;999.90;;;;;;;5.15;72.53;101961.00;15848738;28;20544;-56
2021/01/10 02:45:12;;;;;;;1999.90;999.90;;;;;;;5.19;72.41;101954.66;15813047;28;20108;-55
2021/01/10 02:52:47;;;;;;;1999.90;999.90;;;;;;;5.14;72.23;101957.41;15805972;28;20553;-58
2021/01/10 03:00:23;;;;;;;1999.90;999.90;;;;;;;5.14;72.53;101964.88;15786718;28;20071;-55
2021/01/10 03:07:57;;;;;;;1999.90;999.90;;;;;;;5.09;72.13;101971.19;15786698;28;20046;-52
2021/01/10 03:15:32;;;;;;;1999.90;999.90;;;;;;;5.03;72.20;101963.16;15803727;28;20044;-54
2021/01/10 03:23:05;;;;;;;1999.90;999.90;;;;;;;4.78;71.84;101959.06;15785703;28;20631;-55
2021/01/10 03:30:39;;;;;;;1999.90;999.90;;;;;;;5.02;72.18;101969.78;15793843;28;20097;-57
2021/01/10 03:38:11;;;;;;;1999.90;999.90;;;;;;;5.01;71.84;101968.94;15802285;28;20059;-52
2021/01/10 03:45:45;;;;;;;1999.90;999.90;;;;;;;4.95;71.81;101974.69;15801727;28;20044;-57
2021/01/10 03:53:17;;;;;;;1999.90;999.90;;;;;;;4.78;71.87;101988.66;15801538;28;20035;-56
2021/01/10 04:00:51;;;;;;;1999.90;999.90;;;;;;;5.04;71.07;101978.66;15807259;28;20372;-56
2021/01/10 04:08:24;;;;;;;1999.90;999.90;;;;;;;5.09;71.10;101986.97;15830126;28;20040;-52
2021/01/10 04:15:58;;;;;;;1999.90;999.90;;;;;;;5.02;70.59;101978.09;15842830;28;20032;-56
2021/01/10 04:23:30;;;;;;;1999.90;999.90;;;;;;;4.92;70.56;101979.66;15834038;28;20047;-56
2021/01/10 04:31:04;;;;;;;1999.90;999.90;;;;;;;4.60;71.22;101967.78;15818850;28;20047;-59
2021/01/10 04:38:37;;;;;;;1999.90;999.90;;;;;;;4.57;71.00;101963.59;15811298;28;20076;-56
2021/01/10 04:46:11;;;;;;;1999.90;999.90;;;;;;;4.78;70.80;101961.00;15840930;28;20511;-55
2021/01/10 04:53:46;;;;;;;1999.90;999.90;;;;;;;4.64;70.66;101955.91;15829991;28;20046;-59
2021/01/10 05:01:23;;;;;;;1999.90;999.90;;;;;;;4.90;69.40;101958.91;15799629;28;20126;-55
2021/01/10 05:08:56;;;;;;;1999.90;999.90;;;;;;;4.47;70.48;101957.13;15870536;28;20124;-56
2021/01/10 05:16:34;;;;;;;1999.90;999.90;;;;;;;4.59;70.69;101963.34;15827571;28;20058;-54
2021/01/10 05:24:07;;;;;;;1999.90;999.90;;;;;;;4.54;71.22;101955.81;15852532;28;20297;-54
2021/01/10 05:31:42;;;;;;;1999.90;999.90;;;;;;;4.78;70.80;101959.06;15799935;28;20462;-56
2021/01/10 05:39:17;;;;;;;1999.90;999.90;;;;;;;4.62;70.48;101965.59;15857927;28;20093;-55
2021/01/10 05:47:02;;;;;;;1999.90;999.90;;;;;;;4.76;70.04;101963.19;15841457;28;20424;-54
2021/01/10 05:54:36;;;;;;;1999.90;999.90;;;;;;;4.61;70.54;101958.38;15850531;28;20113;-57
2021/01/10 06:02:10;;;;;;;1999.90;999.90;;;;;;;4.70;70.38;101956.81;15804951;28;20109;-56
2021/01/10 06:09:46;;;;;;;;;;;;;;;4.71;69.14;101957.66;15808327;28;20048;-56
2021/01/10 06:17:19;;;;;;;1999.90;999.90;;;;;;;4.61;68.86;101962.00;15848224;28;20022;-54
2021/01/10 06:24:53;;;;;;;1999.90;999.90;;;;;;;4.31;70.10;101959.75;15816391;28;20408;-54
2021/01/10 06:32:28;;;;;;;;;;;;;;;4.53;69.22;101967.97;15831907;28;20116;-56
2021/01/10 06:40:03;;;;;;;1999.90;999.90;;;;;;;3.92;70.17;101974.78;15829916;28;19920;-54
2021/01/10 06:47:37;;;;;;;1999.90;999.90;;;;;;;3.87;69.79;101972.81;15842703;28;20126;-57
2021/01/10 06:55:11;;;;;;;1999.90;999.90;;;;;;;4.14;69.76;101986.66;15863051;28;20473;-55
2021/01/10 07:03:12;;;;;;;1999.90;999.90;;;;;;;3.96;68.46;101985.09;15827689;28;20075;-58
2021/01/10 07:10:44;;;;;;;1999.90;999.90;;;;;;;3.98;67.31;101991.19;15845929;28;20077;-54
2021/01/10 07:18:18;;;;;;;1999.90;999.90;;;;;;;4.27;67.23;101988.16;15809939;28;20043;-59
2021/01/10 07:25:54;;;;;;;1999.90;999.90;;;;;;;4.15;68.69;101999.38;15804046;28;20040;-55
2021/01/10 07:33:28;;;;;;;1999.90;999.90;;;;;;;3.63;70.38;101999.81;15845496;28;20047;-52
2021/01/10 07:41:23;;;;;;;1999.90;999.90;;;;;;;4.04;69.19;102014.97;15820812;28;20052;-54
2021/01/10 07:48:56;;;;;;;1999.90;999.90;;;;;;;3.88;67.82;102026.13;15820554;28;20052;-51
2021/01/10 07:56:31;;;;;;;1999.90;999.90;;;;;;;3.80;68.49;102023.78;15821577;28;20481;-52
2021/01/10 08:04:11;;;;;;;1999.90;999.90;;;;;;;3.99;68.33;102038.97;15801823;28;20040;-51
2021/01/10 08:11:53;;;;;;;1999.90;999.90;;;;;;;3.81;68.58;102048.38;15821049;28;20043;-54
2021/01/10 08:19:27;;;;;;;1999.90;999.90;;;;;;;3.69;68.31;102061.47;15820221;28;20048;-53
2021/01/10 08:27:05;;;;;;;1999.90;999.90;;;;;;;3.71;68.31;102057.38;15822429;28;20071;-58
2021/01/10 08:34:48;;;;;;;1999.90;999.90;;;;;;;3.62;69.07;102069.09;15821137;28;20116;-53
2021/01/10 08:42:21;;;;;;;1999.90;999.90;;;;;;;3.88;68.49;102064.78;15826611;28;20473;-57
2021/01/10 08:50:03;;;;;;;1999.90;999.90;;;;;;;3.66;68.81;102060.06;15845389;28;20507;-52
2021/01/10 08:57:38;;;;;;;1999.90;999.90;;;;;;;3.85;68.20;102066.09;15826676;28;20126;-58
2021/01/10 09:05:23;;;;;;;1999.90;999.90;;;;;;;3.87;67.64;102065.88;15840284;28;20043;-55
2021/01/10 09:13:03;;;;;;;1999.90;999.90;;;;;;;3.88;68.86;102073.06;15836344;28;20370;-55
2021/01/10 09:20:48;;;;;;;1999.90;999.90;;;;;;;4.23;68.51;102068.00;15810978;28;20130;-56
2021/01/10 09:28:22;;;;;;;1999.90;999.90;;;;;;;3.88;67.37;102073.91;15830773;28;20182;-56
2021/01/10 09:35:58;;;;;;;1999.90;999.90;;;;;;;4.00;67.21;102066.31;15829065;28;20040;-55
2021/01/10 09:43:38;;;;;;;1999.90;999.90;;;;;;;3.67;68.45;102063.66;15782061;28;20058;-56
2021/01/10 09:51:12;;;;;;;1999.90;999.90;;;;;;;3.63;66.02;102059.72;15780060;28;20036;-58
2021/01/10 09:58:44;;;;;;;;;;;;;;;4.58;63.80;102066.72;15812936;28;20135;-59
2021/01/10 10:06:18;;;;;;;1999.90;999.90;;;;;;;4.35;64.20;102054.03;15855172;27;19920;-56
2021/01/10 10:13:56;;;;;;;1999.90;999.90;;;;;;;4.10;65.25;102057.34;15857167;28;20122;-55
2021/01/10 10:21:30;;;;;;;1999.90;999.90;;;;;;;4.24;65.22;102055.00;15865444;27;20044;-59
2021/01/10 10:29:04;;;;;;;1999.90;999.90;;;;;;;4.22;64.27;102055.28;15815349;28;20054;-59
2021/01/10 10:36:37;;;;;;;1999.90;999.90;;;;;;;4.40;63.93;102054.09;15835980;28;20493;-57
2021/01/10 10:44:10;;;;;;;1999.90;999.90;;;;;;;4.82;63.39;102048.72;15807785;28;20082;-60
2021/01/10 10:51:43;;;;;;;1999.90;999.90;;;;;;;4.64;63.73;102049.09;15806023;28;20048;-58
2021/01/10 10:59:17;;;;;;;1999.90;999.90;;;;;;;4.19;63.32;102039.22;15807316;28;20044;-56
2021/01/10 11:06:50;;;;;;;1999.90;999.90;;;;;;;4.76;61.50;102035.94;15805508;28;20047;-53
2021/01/10 11:14:23;;;;;;;1999.90;999.90;;;;;;;6.32;58.56;102015.06;15805289;28;20040;-57
2021/01/10 11:21:56;;;;;;;1999.90;999.90;;;;;;;8.80;51.38;102014.78;15804526;28;20067;-57
2021/01/10 11:29:30;;;;;;;1999.90;999.90;;;;;;;6.49;55.11;102012.06;15785413;28;20075;-56
2021/01/10 11:37:04;;;;;;;1999.90;999.90;;;;;;;6.24;56.40;102001.72;15803958;28;20088;-57
2021/01/10 11:44:37;;;;;;;1999.90;999.90;;;;;;;5.74;58.21;101982.94;15785063;28;20607;-55
2021/01/10 11:52:10;;;;;;;1999.90;999.90;;;;;;;6.10;58.32;101981.16;15802340;28;20048;-60
2021/01/10 11:59:43;;;;;;;1999.90;999.90;;;;;;;10.24;47.25;101985.16;15783821;28;20571;-55
2021/01/10 12:07:18;;;;;;;1999.90;999.90;;;;;;;9.70;47.56;101988.34;15805491;28;20043;-56
2021/01/10 12:14:50;;;;;;;1999.90;999.90;;;;;;;6.71;54.32;101989.63;15835443;28;20039;-54
2021/01/10 12:22:24;;;;;;;1999.90;999.90;;;;;;;6.14;57.66;101982.28;15803863;28;20048;-55
2021/01/10 12:29:56;;;;;;;1999.90;999.90;;;;;;;5.61;58.61;101959.34;15828025;28;20044;-57
2021/01/10 12:37:30;;;;;;;1999.90;999.90;;;;;;;6.34;57.25;101968.47;15815882;28;20496;-59
2021/01/10 12:45:05;;;;;;;1999.90;999.90;;;;;;;4.76;61.09;101964.03;15808432;28;20044;-57
2021/01/10 12:52:39;;;;;;;1999.90;999.90;;;;;;;6.36;55.92;101946.03;15836367;28;20331;-57
2021/01/10 13:00:14;;;;;;;1999.90;999.90;;;;;;;4.93;60.78;101945.38;15816479;28;20051;-57
2021/01/10 13:07:48;;;;;;;1999.90;999.90;;;;;;;5.56;58.93;101939.09;15862785;28;20039;-55
2021/01/10 13:15:21;;;;;;;1999.90;999.90;;;;;;;5.01;59.96;101946.81;15844180;28;20428;-57
2021/01/10 13:22:55;;;;;;;1999.90;999.90;;;;;;;4.65;59.82;101934.63;15810939;28;20032;-61
2021/01/10 13:30:28;;;;;;;1999.90;999.90;;;;;;;4.42;60.50;101935.81;15810491;28;20068;-59
2021/01/10 13:38:01;;;;;;;1999.90;999.90;;;;;;;4.40;61.40;101929.72;15791699;28;20040;-61
2021/01/10 13:45:34;;;;;;;1999.90;999.90;;;;;;;4.44;61.42;101930.03;15809266;28;20052;-59
2021/01/10 13:53:07;;;;;;;1999.90;999.90;;;;;;;4.63;60.55;101928.53;15809546;28;20044;-61
2021/01/10 14:00:41;;;;;;;1999.90;999.90;;;;;;;4.84;61.01;101924.84;15790888;28;20241;-59
2021/01/10 14:08:14;;;;;;;1999.90;999.90;;;;;;;4.44;61.39;101930.84;15790928;28;20174;-61
2021/01/10 14:15:47;;;;;;;1999.90;999.90;;;;;;;4.56;62.05;101930.69;15807175;28;20055;-59
2021/01/10 14:23:20;;;;;;;1999.90;999.90;;;;;;;4.66;62.15;101941.00;15789103;28;20048;-61
2021/01/10 14:30:54;;;;;;;1999.90;999.90;;;;;;;4.33;62.73;101945.69;15788735;28;20426;-59
2021/01/10 14:38:27;;;;;;;1999.90;999.90;;;;;;;4.80;61.65;101936.72;15770850;28;20521;-61
2021/01/10 14:46:00;;;;;;;1999.90;999.90;;;;;;;4.45;61.98;101931.69;15806704;28;20143;-60
2021/01/10 14:53:34;;;;;;;1999.90;999.90;;;;;;;4.59;62.26;101935.72;15787727;28;20093;-60
2021/01/10 15:01:06;;;;;;;1999.90;999.90;;;;;;;4.27;63.54;101931.00;15770398;28;20396;-59
2021/01/10 15:08:41;;;;;;;1999.90;999.90;;;;;;;4.47;62.42;101924.78;15804799;28;20042;-61
2021/01/10 15:16:14;;;;;;;1999.90;999.90;;;;;;;4.57;62.47;101929.56;15804207;28;20186;-58
2021/01/10 15:23:47;;;;;;;1999.90;999.90;;;;;;;4.56;62.77;101925.97;15803885;28;20096;-59
2021/01/10 15:31:21;;;;;;;1999.90;999.90;;;;;;;4.52;62.74;101921.25;15803291;28;20399;-57
2021/01/10 15:38:55;;;;;;;1999.90;999.90;;;;;;;4.75;62.99;101914.53;15803302;28;20082;-60
2021/01/10 15:46:31;;;;;;;;;;;;;;;4.68;62.97;101908.38;15803788;28;20044;-61
2021/01/10 15:54:05;;;;;;;1999.90;999.90;;;;;;;4.62;63.30;101915.81;15815276;28;20258;-61
2021/01/10 16:01:38;;;;;;;1999.90;999.90;;;;;;;4.31;64.14;101918.31;15852246;28;20490;-61
2021/01/10 16:09:12;;;;;;;1999.90;999.90;;;;;;;4.51;63.73;101917.66;15846163;28;20040;-62
2021/01/10 16:16:45;;;;;;;1999.90;999.90;;;;;;;4.01;65.04;101912.47;15848998;27;20044;-59
2021/01/10 16:24:19;;;;;;;1999.90;999.90;;;;;;;3.97;64.93;101903.06;15817969;28;20465;-59
2021/01/10 16:31:53;;;;;;;1999.90;999.90;;;;;;;3.71;66.11;101904.69;15841890;28;20138;-64
2021/01/10 16:39:27;;;;;;;1999.90;999.90;;;;;;;3.45;67.84;101892.53;15870824;27;20062;-62
2021/01/10 16:46:59;;;;;;;;;;;;;;;4.03;65.73;101879.91;15863117;28;20043;-61
2021/01/10 16:54:33;;;;;;;1999.90;999.90;;;;;;;3.63;66.94;101883.88;15862120;28;19919;-62
2021/01/10 17:02:05;;;;;;;1999.90;999.90;;;;;;;3.60;67.47;101876.13;15876866;27;20039;-64
2021/01/10 17:09:39;;;;;;;1999.90;999.90;;;;;;;3.69;67.83;101868.22;15833356;28;20111;-62
2021/01/10 17:17:12;;;;;;;1999.90;999.90;;;;;;;3.81;67.37;101866.16;15858459;28;20054;-62
2021/01/10 17:24:45;;;;;;;1999.90;999.90;;;;;;;3.82;66.98;101864.22;15855282;28;20036;-63
2021/01/10 17:32:18;;;;;;;1999.90;999.90;;;;;;;3.55;67.09;101859.53;15874104;28;20131;-63
2021/01/10 17:39:51;;;;;;;1999.90;999.90;;;;;;;3.51;67.59;101863.88;15873758;28;20146;-60
2021/01/10 17:47:24;;;;;;;;;;;;;;;3.43;67.73;101861.56;15854037;28;20074;-61
2021/01/10 17:54:57;;;;;;;1999.90;999.90;;;;;;;3.23;68.60;101858.53;15831302;28;20324;-59
2021/01/10 18:02:30;;;;;;;1999.90;999.90;;;;;;;2.94;69.75;101852.38;15836063;28;20104;-63
2021/01/10 18:10:05;;;;;;;1999.90;999.90;;;;;;;2.92;70.12;101849.03;15869279;28;20047;-62
2021/01/10 18:17:39;;;;;;;1999.90;999.90;;;;;;;2.80;70.20;101858.25;15862638;28;20152;-62
2021/01/10 18:25:15;;;;;;;1999.90;999.90;;;;;;;2.76;70.27;101861.78;15861324;28;20357;-61
2021/01/10 18:32:49;;;;;;;;;;;;;;;2.95;69.64;101867.84;15837298;28;20058;-62
2021/01/10 18:40:22;;;;;;;1999.90;999.90;;;;;;;2.55;70.63;101872.47;15858559;28;20380;-62
2021/01/10 18:47:55;;;;;;;1999.90;999.90;;;;;;;2.44;71.08;101864.31;15869735;28;20036;-63
2021/01/10 18:55:29;;;;;;;1999.90;999.90;;;;;;;2.38;71.15;101870.81;15849044;28;20044;-63
2021/01/10 19:03:01;;;;;;;1999.90;999.90;;;;;;;1.89;72.69;101873.28;15868054;28;20047;-56
2021/01/10 19:10:35;;;;;;;1999.90;999.90;;;;;;;1.51;74.25;101872.00;15849052;28;20408;-59
2021/01/10 19:18:07;;;;;;;;;;;;;;;1.78;74.25;101864.00;15830463;28;20048;-60
2021/01/10 19:25:41;;;;;;;1999.90;999.90;;;;;;;1.33;75.50;101839.16;15844052;28;19931;-61
2021/01/10 19:33:13;;;;;;;;;;;;;;;1.13;76.31;101831.31;15840173;28;20074;-63
2021/01/10 19:40:47;;;;;;;1999.90;999.90;;;;;;;1.37;75.80;101835.69;15829897;28;20014;-61
2021/01/10 19:48:20;;;;;;;1999.90;999.90;;;;;;;1.20;76.04;101826.53;15847623;28;20043;-59
2021/01/10 19:55:57;;;;;;;1999.90;999.90;;;;;;;1.56;74.70;101822.56;15827620;28;20039;-59
2021/01/10 20:03:31;;;;;;;1999.90;999.90;;;;;;;1.72;74.09;101829.19;15806150;28;20044;-57
2021/01/10 20:11:07;;;;;;;1999.90;999.90;;;;;;;1.74;74.13;101816.84;15854872;28;20500;-58
2021/01/10 20:19:05;;;;;;;1999.90;999.90;;;;;;;1.62;73.88;101815.25;15841866;28;20417;-58
2021/01/10 20:26:51;;;;;;;1999.90;999.90;;;;;;;1.88;73.22;101816.56;15856462;27;20092;-52
2021/01/10 20:34:25;;;;;;;1999.90;999.90;;;;;;;1.76;73.63;101799.25;15827240;28;20489;-58
2021/01/10 20:42:05;;;;;;;1999.90;999.90;;;;;;;1.76;73.70;101785.50;15847020;28;20454;-57
2021/01/10 20:49:43;;;;;;;1999.90;999.90;;;;;;;1.36;74.88;101773.53;15785812;28;20077;-60
2021/01/10 20:57:26;;;;;;;1999.90;999.90;;;;;;;1.61;73.58;101781.41;15796891;28;20122;-58
2021/01/10 21:05:07;;;;;;;1999.90;999.90;;;;;;;1.56;74.30;101769.44;15809822;28;20103;-60
2021/01/10 21:12:50;;;;;;;1999.90;999.90;;;;;;;1.68;73.51;101767.50;15853857;28;20126;-55
2021/01/10 21:20:34;;;;;;;1999.90;999.90;;;;;;;1.73;73.44;101770.31;15808657;28;20063;-56
2021/01/10 21:28:25;;;;;;;1999.90;999.90;;;;;;;1.69;73.36;101750.72;15828420;28;20119;-57
2021/01/10 21:36:14;;;;;;;1999.90;999.90;;;;;;;1.88;72.28;101742.25;15834727;28;20365;-58
2021/01/10 21:43:49;;;;;;;1999.90;999.90;;;;;;;1.81;72.83;101750.66;15841766;28;20489;-60
2021/01/10 21:51:23;;;;;;;1999.90;999.90;;;;;;;1.47;73.48;101748.94;15851544;28;20066;-56
2021/01/10 21:59:10;;;;;;;1999.90;999.90;;;;;;;1.79;72.67;101752.00;15804782;28;20036;-58
2021/01/10 22:06:46;;;;;;;1999.90;999.90;;;;;;;1.67;73.24;101755.66;15837418;28;20552;-56
2021/01/10 22:14:21;;;;;;;1999.90;999.90;;;;;;;1.67;72.98;101738.31;15826989;28;20052;-57
2021/01/10 22:21:54;;;;;;;1999.90;999.90;;;;;;;1.59;73.15;101736.78;15816870;28;20043;-56
2021/01/10 22:29:28;;;;;;;1999.90;999.90;;;;;;;1.79;72.43;101740.97;15801650;28;20047;-58
2021/01/10 22:37:00;;;;;;;;;;;;;;;1.96;71.86;101722.53;15793764;28;20036;-58
2021/01/10 22:44:34;;;;;;;1999.90;999.90;;;;;;;1.75;72.42;101704.84;15832543;28;19962;-57
2021/01/10 22:52:08;;;;;;;1999.90;999.90;;;;;;;1.79;71.97;101705.19;15803938;28;20040;-58
2021/01/10 22:59:41;;;;;;;1999.90;999.90;;;;;;;1.64;72.20;101681.84;15808928;28;20040;-54
2021/01/10 23:07:14;;;;;;;;;;;;;;;1.79;72.10;101686.78;15809471;28;20439;-58
2021/01/10 23:14:47;;;;;;;1999.90;999.90;;;;;;;1.45;73.27;101675.75;15823452;28;19920;-56
2021/01/10 23:22:20;;;;;;;;;;;;;;;1.87;71.92;101678.06;15826527;28;20055;-57
2021/01/10 23:29:53;;;;;;;1999.90;999.90;;;;;;;1.88;71.65;101674.25;15802814;28;19931;-60
2021/01/10 23:37:26;;;;;;;1999.90;999.90;;;;;;;1.85;71.21;101663.72;15846320;28;20040;-54
2021/01/10 23:45:00;;;;;;;1999.90;999.90;;;;;;;1.96;70.76;101661.97;15827956;28;20440;-55
2021/01/10 23:52:32;;;;;;;;;;;;;;;2.17;70.15;101666.69;15824928;28;20345;-57
